createdAt,value
2022-10-17T00:00:02.731Z,100716.00
2022-10-17T00:02:04.442Z,100720.31
2022-10-17T00:04:06.114Z,100715.09
2022-10-17T00:06:12.738Z,100728.09
2022-10-17T00:08:16.210Z,100732.41
2022-10-17T00:10:18.029Z,100733.28
2022-10-17T00:12:19.837Z,100734.19
2022-10-17T00:14:21.488Z,100735.84
2022-10-17T00:16:25.764Z,100733.25
2022-10-17T00:18:27.474Z,100722.88
2022-10-17T00:20:30.592Z,100712.50
2022-10-17T00:22:32.327Z,100704.69
2022-10-17T00:24:34.070Z,100711.63
2022-10-17T00:26:35.728Z,100728.94
2022-10-17T00:28:37.428Z,100729.78
2022-10-17T00:30:39.483Z,100731.53
2022-10-17T00:32:41.470Z,100731.53
2022-10-17T00:34:43.169Z,100722.00
2022-10-17T00:36:44.912Z,100730.72
2022-10-17T00:38:49.855Z,100735.03
2022-10-17T00:40:51.625Z,100749.81
2022-10-17T00:42:53.359Z,100760.16
2022-10-17T00:45:03.537Z,100772.34
2022-10-17T00:47:07.624Z,100774.06
2022-10-17T00:49:12.563Z,100780.13
2022-10-17T00:51:14.835Z,100777.53
2022-10-17T00:53:18.678Z,100775.81
2022-10-17T00:55:25.396Z,100782.72
2022-10-17T00:57:31.167Z,100774.94
2022-10-17T00:59:39.535Z,100780.13
2022-10-17T01:01:54.176Z,100784.47
2022-10-17T01:03:55.837Z,100786.19
2022-10-17T01:05:57.587Z,100786.16
2022-10-17T01:07:59.570Z,100790.53
2022-10-17T01:10:01.619Z,100794.84
2022-10-17T01:12:39.677Z,100793.09
2022-10-17T01:14:50.220Z,100794.00
2022-10-17T01:17:05.642Z,100810.47
2022-10-17T01:19:28.284Z,100805.28
2022-10-17T01:21:48.042Z,100808.72
2022-10-17T01:24:08.519Z,100804.41
2022-10-17T01:26:25.111Z,100803.59
2022-10-17T01:28:54.561Z,100795.78
2022-10-17T01:30:56.187Z,100796.72
2022-10-17T01:33:03.847Z,100805.34
2022-10-17T01:35:05.528Z,100806.22
2022-10-17T01:37:14.987Z,100808.81
2022-10-17T01:39:30.072Z,100814.88
2022-10-17T01:41:49.852Z,100819.25
2022-10-17T01:43:59.032Z,100822.69
2022-10-17T01:46:18.337Z,100826.16
2022-10-17T01:48:25.424Z,100822.72
2022-10-17T01:50:36.326Z,100825.28
2022-10-17T01:52:51.024Z,100826.16
2022-10-17T01:55:03.398Z,100822.66
2022-10-17T01:57:10.489Z,100828.75
2022-10-17T01:59:24.211Z,100827.91
2022-10-17T02:01:28.504Z,100835.72
2022-10-17T02:03:37.662Z,100856.50
2022-10-17T02:05:41.512Z,100863.50
2022-10-17T02:07:43.314Z,100860.03
2022-10-17T02:09:44.992Z,100861.78
2022-10-17T02:12:01.246Z,100862.66
2022-10-17T02:14:38.201Z,100862.63
2022-10-17T02:17:24.805Z,100867.00
2022-10-17T02:19:57.489Z,100857.41
2022-10-17T02:22:22.790Z,100866.97
2022-10-17T02:24:58.371Z,100874.78
2022-10-17T02:27:09.490Z,100879.97
2022-10-17T02:29:19.545Z,100874.78
2022-10-17T02:31:26.974Z,100877.34
2022-10-17T02:33:39.658Z,100892.97
2022-10-17T02:35:46.445Z,100892.06
2022-10-17T02:37:50.739Z,100903.34
2022-10-17T02:39:54.757Z,100894.69
2022-10-17T02:41:58.993Z,100903.38
2022-10-17T02:44:03.841Z,100902.47
2022-10-17T02:46:08.027Z,100894.69
2022-10-17T02:48:28.277Z,100903.34
2022-10-17T02:50:42.959Z,100875.63
2022-10-17T02:52:51.670Z,100867.00
2022-10-17T02:55:10.094Z,100844.47
2022-10-17T02:57:42.121Z,100831.47
2022-10-17T02:59:45.738Z,100847.94
2022-10-17T03:01:48.268Z,100858.31
2022-10-17T03:03:50.035Z,100861.78
2022-10-17T03:05:52.353Z,100859.19
2022-10-17T03:07:55.359Z,100851.38
2022-10-17T03:09:57.037Z,100861.75
2022-10-17T03:11:58.816Z,100858.31
2022-10-17T03:14:00.511Z,100864.38
2022-10-17T03:16:02.199Z,100867.84
2022-10-17T03:18:04.143Z,100866.09
2022-10-17T03:20:06.964Z,100872.16
2022-10-17T03:22:08.644Z,100869.53
2022-10-17T03:24:10.431Z,100873.88
2022-10-17T03:26:12.491Z,100870.41
2022-10-17T03:28:14.178Z,100859.16
2022-10-17T03:30:15.949Z,100850.47
2022-10-17T03:32:17.678Z,100842.69
2022-10-17T03:34:19.370Z,100853.09
2022-10-17T03:36:21.267Z,100866.94
2022-10-17T03:38:23.840Z,100861.78
2022-10-17T03:40:25.538Z,100875.63
2022-10-17T03:42:27.234Z,100873.03
2022-10-17T03:44:28.993Z,100881.69
2022-10-17T03:46:30.782Z,100883.41
2022-10-17T03:48:33.252Z,100879.06
2022-10-17T03:50:34.946Z,100886.91
2022-10-17T03:52:36.654Z,100889.50
2022-10-17T03:54:38.340Z,100895.53
2022-10-17T03:56:40.002Z,100892.94
2022-10-17T03:58:42.614Z,100890.34
2022-10-17T04:00:44.572Z,100892.09
2022-10-17T04:02:46.224Z,100883.41
2022-10-17T04:04:47.939Z,100886.88
2022-10-17T04:06:49.568Z,100892.97
2022-10-17T04:08:51.352Z,100892.06
2022-10-17T04:10:53.354Z,100879.94
2022-10-17T04:12:55.089Z,100886.84
2022-10-17T04:14:56.777Z,100882.53
2022-10-17T04:16:58.666Z,100877.31
2022-10-17T04:19:01.229Z,100892.09
2022-10-17T04:21:04.294Z,100889.47
2022-10-17T04:23:06.027Z,100889.50
2022-10-17T04:25:07.868Z,100893.81
2022-10-17T04:27:09.557Z,100892.06
2022-10-17T04:29:11.347Z,100898.13
2022-10-17T04:31:14.687Z,100899.88
2022-10-17T04:33:25.769Z,100908.53
2022-10-17T04:35:27.541Z,100912.88
2022-10-17T04:37:30.338Z,100913.78
2022-10-17T04:39:32.056Z,100909.44
2022-10-17T04:41:33.765Z,100906.81
2022-10-17T04:43:37.957Z,100896.44
2022-10-17T04:45:39.590Z,100912.03
2022-10-17T04:47:41.241Z,100926.75
2022-10-17T04:49:43.047Z,100928.47
2022-10-17T04:51:44.734Z,100933.69
2022-10-17T04:53:46.707Z,100938.88
2022-10-17T04:55:48.520Z,100944.09
2022-10-17T04:57:50.159Z,100957.91
2022-10-17T04:59:51.780Z,100949.28
2022-10-17T05:01:53.492Z,100948.41
2022-10-17T05:03:56.068Z,100938.00
2022-10-17T05:05:57.723Z,100940.59
2022-10-17T05:07:59.479Z,100953.59
2022-10-17T05:10:01.128Z,100970.94
2022-10-17T05:12:04.386Z,100971.78
2022-10-17T05:14:08.415Z,100986.50
2022-10-17T05:16:10.941Z,100989.13
2022-10-17T05:18:12.595Z,100995.19
2022-10-17T05:20:14.377Z,101002.09
2022-10-17T05:22:16.109Z,101004.72
2022-10-17T05:24:17.946Z,101012.50
2022-10-17T05:26:20.088Z,101016.00
2022-10-17T05:28:22.957Z,101015.13
2022-10-17T05:30:24.877Z,101019.44
2022-10-17T05:32:26.935Z,101024.66
2022-10-17T05:34:28.816Z,101026.38
2022-10-17T05:36:30.870Z,101022.03
2022-10-17T05:38:32.807Z,101019.44
2022-10-17T05:40:35.001Z,101019.44
2022-10-17T05:42:37.221Z,101027.25
2022-10-17T05:44:39.848Z,101030.69
2022-10-17T05:46:41.517Z,101026.38
2022-10-17T05:48:44.117Z,101034.16
2022-10-17T05:50:45.805Z,101035.03
2022-10-17T05:52:47.515Z,101045.41
2022-10-17T05:54:49.267Z,101045.38
2022-10-17T05:56:55.559Z,101046.25
2022-10-17T05:59:00.689Z,101044.50
2022-10-17T06:01:07.159Z,101053.13
2022-10-17T06:03:12.578Z,101053.16
2022-10-17T06:05:15.172Z,101053.13
2022-10-17T06:07:16.919Z,101037.53
2022-10-17T06:09:18.600Z,101054.84
2022-10-17T06:11:20.248Z,101069.56
2022-10-17T06:13:31.830Z,101098.97
2022-10-17T06:15:33.535Z,101098.13
2022-10-17T06:17:35.816Z,101090.31
2022-10-17T06:19:37.508Z,101098.97
2022-10-17T06:21:39.372Z,101093.75
2022-10-17T06:23:41.077Z,101102.41
2022-10-17T06:25:43.011Z,101105.03
2022-10-17T06:27:45.059Z,101099.81
2022-10-17T06:29:47.944Z,101106.75
2022-10-17T06:31:49.610Z,101107.63
2022-10-17T06:33:51.352Z,101113.72
2022-10-17T06:35:54.627Z,101111.94
2022-10-17T06:37:56.351Z,101114.56
2022-10-17T06:39:58.046Z,101116.31
2022-10-17T06:42:01.198Z,101109.38
2022-10-17T06:44:08.499Z,101114.53
2022-10-17T06:46:14.112Z,101124.06
2022-10-17T06:48:15.888Z,101129.28
2022-10-17T06:50:17.627Z,101138.81
2022-10-17T06:52:19.499Z,101148.34
2022-10-17T06:54:21.530Z,101159.59
2022-10-17T06:56:23.284Z,101161.31
2022-10-17T06:58:24.979Z,101163.06
2022-10-17T07:00:26.963Z,101156.13
2022-10-17T07:02:28.981Z,101158.69
2022-10-17T07:04:31.045Z,101167.38
2022-10-17T07:06:32.811Z,101172.56
2022-10-17T07:08:34.562Z,101184.69
2022-10-17T07:10:38.609Z,101195.06
2022-10-17T07:12:41.871Z,101190.75
2022-10-17T07:14:43.536Z,101192.50
2022-10-17T07:16:45.521Z,101192.47
2022-10-17T07:18:50.209Z,101186.38
2022-10-17T07:20:55.365Z,101189.84
2022-10-17T07:22:57.208Z,101195.94
2022-10-17T07:24:58.897Z,101221.06
2022-10-17T07:27:00.586Z,101226.25
2022-10-17T07:29:02.523Z,101234.03
2022-10-17T07:31:07.122Z,101237.47
2022-10-17T07:33:08.853Z,101241.81
2022-10-17T07:35:11.808Z,101251.28
2022-10-17T07:37:13.584Z,101266.84
2022-10-17T07:39:15.390Z,101272.06
2022-10-17T07:41:19.464Z,101270.31
2022-10-17T07:43:27.956Z,101275.44
2022-10-17T07:45:29.744Z,101278.97
2022-10-17T07:47:33.358Z,101282.44
2022-10-17T07:49:35.179Z,101294.53
2022-10-17T07:51:37.884Z,101296.28
2022-10-17T07:53:41.796Z,101304.88
2022-10-17T07:55:46.563Z,101294.53
2022-10-17T07:57:48.678Z,101297.88
2022-10-17T07:59:51.500Z,101302.19
2022-10-17T08:01:56.205Z,101292.75
2022-10-17T08:03:57.992Z,101302.28
2022-10-17T08:06:01.367Z,101310.00
2022-10-17T08:08:03.063Z,101308.31
2022-10-17T08:10:05.366Z,101321.31
2022-10-17T08:12:07.489Z,101322.13
2022-10-17T08:14:09.144Z,101324.72
2022-10-17T08:16:13.267Z,101321.38
2022-10-17T08:18:16.065Z,101319.63
2022-10-17T08:20:18.142Z,101320.50
2022-10-17T08:22:19.809Z,101332.63
2022-10-17T08:24:21.656Z,101338.69
2022-10-17T08:26:23.444Z,101339.63
2022-10-17T08:28:25.150Z,101340.44
2022-10-17T08:30:26.861Z,101349.06
2022-10-17T08:32:29.795Z,101365.47
2022-10-17T08:34:31.931Z,101353.41
2022-10-17T08:36:33.916Z,101364.66
2022-10-17T08:38:38.481Z,101356.84
2022-10-17T08:40:43.244Z,101361.28
2022-10-17T08:43:35.216Z,101383.72
2022-10-17T08:45:48.756Z,101375.06
2022-10-17T08:48:00.569Z,101381.13
2022-10-17T08:50:11.915Z,101382.91
2022-10-17T08:52:30.022Z,101386.31
2022-10-17T08:54:42.076Z,101390.66
2022-10-17T08:56:49.772Z,101406.19
2022-10-17T08:58:52.401Z,101410.59
2022-10-17T09:01:02.387Z,101414.16
2022-10-17T09:03:40.822Z,101422.84
2022-10-17T09:06:05.523Z,101413.31
2022-10-17T09:08:35.799Z,101420.31
2022-10-17T09:10:46.796Z,101423.00
2022-10-17T09:13:10.426Z,101427.19
2022-10-17T09:15:30.209Z,101429.78
2022-10-17T09:17:52.746Z,101432.28
2022-10-17T09:20:26.672Z,101429.78
2022-10-17T09:22:34.960Z,101434.09
2022-10-17T09:24:55.640Z,101434.06
2022-10-17T09:26:57.425Z,101449.75
2022-10-17T09:29:01.230Z,101450.63
2022-10-17T09:31:12.954Z,101447.16
2022-10-17T09:33:53.360Z,101443.78
2022-10-17T09:35:49.605Z,101450.63
2022-10-17T09:37:51.950Z,101448.91
2022-10-17T09:40:01.121Z,101449.75
2022-10-17T09:42:20.761Z,101456.78
2022-10-17T09:44:39.245Z,101463.75
2022-10-17T09:46:53.770Z,101474.13
2022-10-17T09:49:03.510Z,101479.34
2022-10-17T09:51:22.047Z,101468.97
2022-10-17T09:53:39.061Z,101474.22
2022-10-17T09:55:57.364Z,101474.22
2022-10-17T09:58:02.628Z,101479.50
2022-10-17T10:00:06.626Z,101491.59
2022-10-17T10:02:23.167Z,101508.00
2022-10-17T10:04:30.561Z,101497.66
2022-10-17T10:06:40.229Z,101520.13
2022-10-17T10:08:52.995Z,101508.84
2022-10-17T10:11:04.589Z,101514.16
2022-10-17T10:13:39.106Z,101527.16
2022-10-17T10:15:44.163Z,101551.31
2022-10-17T10:17:46.151Z,101541.88
2022-10-17T10:19:52.448Z,101541.88
2022-10-17T10:22:06.285Z,101554.88
2022-10-17T10:24:10.835Z,101546.28
2022-10-17T10:26:25.939Z,101546.34
2022-10-17T10:28:31.856Z,101551.56
2022-10-17T10:30:36.208Z,101548.19
2022-10-17T10:32:40.930Z,101545.66
2022-10-17T10:34:57.854Z,101550.91
2022-10-17T10:37:06.005Z,101566.50
2022-10-17T10:39:23.082Z,101569.16
2022-10-17T10:41:33.552Z,101575.22
2022-10-17T10:43:46.481Z,101578.69
2022-10-17T10:45:51.544Z,101574.38
2022-10-17T10:47:59.065Z,101582.22
2022-10-17T10:50:17.318Z,101579.53
2022-10-17T10:52:39.831Z,101577.97
2022-10-17T10:54:51.497Z,101581.44
2022-10-17T10:56:55.621Z,101583.16
2022-10-17T10:59:12.728Z,101582.31
2022-10-17T11:01:40.767Z,101602.31
2022-10-17T11:04:07.256Z,101598.84
2022-10-17T11:06:23.133Z,101599.69
2022-10-17T11:08:35.242Z,101602.31
2022-10-17T11:11:06.160Z,101605.78
2022-10-17T11:13:42.229Z,101611.91
2022-10-17T11:15:52.092Z,101621.34
2022-10-17T11:18:13.640Z,101618.84
2022-10-17T11:20:29.924Z,101631.81
2022-10-17T11:22:36.627Z,101633.53
2022-10-17T11:24:57.340Z,101633.63
2022-10-17T11:27:05.046Z,101644.78
2022-10-17T11:29:09.235Z,101646.47
2022-10-17T11:31:13.680Z,101642.22
2022-10-17T11:33:57.999Z,101642.22
2022-10-17T11:36:05.985Z,101657.91
2022-10-17T11:38:21.516Z,101653.50
2022-10-17T11:40:33.314Z,101661.41
2022-10-17T11:42:44.511Z,101661.31
2022-10-17T11:45:08.960Z,101659.59
2022-10-17T11:47:28.791Z,101664.84
2022-10-17T11:49:40.548Z,101674.41
2022-10-17T11:52:00.799Z,101674.44
2022-10-17T11:54:11.902Z,101682.22
2022-10-17T11:56:17.358Z,101679.59
2022-10-17T11:58:26.789Z,101684.81
2022-10-17T12:00:46.184Z,101677.06
2022-10-17T12:03:17.819Z,101676.22
2022-10-17T12:05:26.094Z,101673.66
2022-10-17T12:09:59.136Z,101685.81
2022-10-17T12:12:02.853Z,101676.28
2022-10-17T12:14:33.381Z,101688.44
2022-10-17T12:16:35.028Z,101684.13
2022-10-17T12:18:36.930Z,101690.28
2022-10-17T12:20:39.998Z,101705.06
2022-10-17T12:22:47.986Z,101693.78
2022-10-17T12:24:55.615Z,101693.88
2022-10-17T12:26:57.398Z,101689.56
2022-10-17T12:28:59.469Z,101703.50
2022-10-17T12:31:10.187Z,101696.50
2022-10-17T12:33:46.283Z,101687.78
2022-10-17T12:35:52.269Z,101683.50
2022-10-17T12:37:57.394Z,101683.44
2022-10-17T12:40:01.032Z,101684.38
2022-10-17T12:42:02.720Z,101692.25
2022-10-17T12:44:13.581Z,101678.38
2022-10-17T12:46:46.690Z,101681.88
2022-10-17T12:49:01.513Z,101682.72
2022-10-17T12:53:46.873Z,101690.59
2022-10-17T12:55:51.869Z,101682.75
2022-10-17T12:58:01.727Z,101680.19
2022-10-17T13:00:31.508Z,101687.16
2022-10-17T13:02:33.817Z,101704.50
2022-10-17T13:04:37.178Z,101702.84
2022-10-17T13:06:45.854Z,101696.72
2022-10-17T13:08:56.094Z,101697.56
2022-10-17T13:11:00.478Z,101706.25
2022-10-17T13:13:08.486Z,101704.47
2022-10-17T13:15:16.537Z,101720.19
2022-10-17T13:17:27.937Z,101707.16
2022-10-17T13:19:42.953Z,101719.34
2022-10-17T13:21:59.736Z,101707.16
2022-10-17T13:24:28.588Z,101708.91
2022-10-17T13:26:30.215Z,101712.38
2022-10-17T13:28:34.802Z,101712.41
2022-10-17T13:30:38.926Z,101708.03
2022-10-17T13:32:42.016Z,101712.41
2022-10-17T13:34:43.822Z,101719.34
2022-10-17T13:36:50.794Z,101714.13
2022-10-17T13:38:52.957Z,101710.59
2022-10-17T13:41:01.626Z,101714.13
2022-10-17T13:43:06.054Z,101714.13
2022-10-17T13:45:32.962Z,101724.56
2022-10-17T13:47:39.007Z,101716.75
2022-10-17T13:49:44.297Z,101727.16
2022-10-17T13:51:48.901Z,101728.03
2022-10-17T13:53:50.737Z,101728.88
2022-10-17T13:56:15.748Z,101726.22
2022-10-17T13:58:18.279Z,101728.78
2022-10-17T14:00:23.032Z,101728.75
2022-10-17T14:02:27.885Z,101736.53
2022-10-17T14:04:40.044Z,101733.81
2022-10-17T14:06:52.379Z,101725.91
2022-10-17T14:09:07.532Z,101728.63
2022-10-17T14:11:23.507Z,101714.63
2022-10-17T14:13:35.937Z,101724.22
2022-10-17T14:15:37.865Z,101731.22
2022-10-17T14:17:39.983Z,101722.56
2022-10-17T14:19:41.654Z,101729.50
2022-10-17T14:21:48.683Z,101735.56
2022-10-17T14:23:51.647Z,101732.97
2022-10-17T14:26:12.702Z,101751.25
2022-10-17T14:28:15.948Z,101737.28
2022-10-17T14:30:51.578Z,101735.47
2022-10-17T14:32:50.352Z,101738.00
2022-10-17T14:35:05.519Z,101745.84
2022-10-17T14:37:28.705Z,101746.72
2022-10-17T14:39:30.822Z,101751.94
2022-10-17T14:41:44.217Z,101742.25
2022-10-17T14:44:02.946Z,101766.72
2022-10-17T14:46:05.694Z,101766.69
2022-10-17T14:48:21.838Z,101762.34
2022-10-17T14:50:29.430Z,101769.47
2022-10-17T14:52:32.650Z,101763.25
2022-10-17T14:54:36.139Z,101770.31
2022-10-17T14:56:41.569Z,101767.69
2022-10-17T14:58:43.262Z,101772.06
2022-10-17T15:00:44.934Z,101778.28
2022-10-17T15:02:48.098Z,101788.72
2022-10-17T15:04:49.741Z,101793.97
2022-10-17T15:06:55.286Z,101799.97
2022-10-17T15:08:57.716Z,101795.56
2022-10-17T15:10:59.441Z,101802.50
2022-10-17T15:13:26.701Z,101798.09
2022-10-17T15:15:23.778Z,101799.88
2022-10-17T15:17:31.231Z,101799.84
2022-10-17T15:19:32.920Z,101809.56
2022-10-17T15:21:39.614Z,101814.00
2022-10-17T15:23:45.267Z,101819.25
2022-10-17T15:25:46.938Z,101813.13
2022-10-17T15:27:48.784Z,101825.38
2022-10-17T15:29:52.909Z,101823.59
2022-10-17T15:31:54.534Z,101832.31
2022-10-17T15:33:56.737Z,101830.59
2022-10-17T15:38:09.028Z,101821.91
2022-10-17T15:40:16.020Z,101829.75
2022-10-17T15:42:17.635Z,101827.13
2022-10-17T15:44:19.321Z,101835.88
2022-10-17T15:46:33.853Z,101837.66
2022-10-17T15:48:35.727Z,101838.53
2022-10-17T15:50:37.403Z,101842.06
2022-10-17T15:52:39.061Z,101839.47
2022-10-17T15:54:40.892Z,101856.03
2022-10-17T15:56:46.768Z,101842.97
2022-10-17T15:58:49.402Z,101846.47
2022-10-17T16:00:51.493Z,101843.81
2022-10-17T16:02:53.387Z,101841.22
2022-10-17T16:04:55.063Z,101842.97
2022-10-17T16:06:56.771Z,101848.19
2022-10-17T16:08:58.489Z,101857.75
2022-10-17T16:11:00.163Z,101859.50
2022-10-17T16:13:01.806Z,101861.25
2022-10-17T16:15:04.060Z,101867.31
2022-10-17T16:17:05.731Z,101863.84
2022-10-17T16:19:07.940Z,101864.69
2022-10-17T16:21:14.007Z,101860.34
2022-10-17T16:23:15.727Z,101867.28
2022-10-17T16:25:22.163Z,101870.78
2022-10-17T16:27:23.889Z,101882.09
2022-10-17T16:29:25.588Z,101874.19
2022-10-17T16:31:30.391Z,101877.72
2022-10-17T16:33:32.858Z,101882.91
2022-10-17T16:35:37.479Z,101876.81
2022-10-17T16:37:39.468Z,101881.94
2022-10-17T16:39:41.230Z,101891.53
2022-10-17T16:41:42.988Z,101887.16
2022-10-17T16:43:44.634Z,101891.47
2022-10-17T16:45:46.381Z,101901.00
2022-10-17T16:47:48.691Z,101905.34
2022-10-17T16:49:50.310Z,101904.47
2022-10-17T16:51:52.023Z,101916.59
2022-10-17T16:53:56.441Z,101920.94
2022-10-17T16:56:02.731Z,101926.16
2022-10-17T16:58:04.524Z,101926.97
2022-10-17T17:00:07.219Z,101927.03
2022-10-17T17:02:11.665Z,101930.44
2022-10-17T17:04:13.677Z,101927.78
2022-10-17T17:06:21.645Z,101922.53
2022-10-17T17:08:23.324Z,101922.50
2022-10-17T17:10:24.959Z,101929.41
2022-10-17T17:12:26.597Z,101930.25
2022-10-17T17:14:28.346Z,101931.94
2022-10-17T17:16:31.977Z,101940.66
2022-10-17T17:18:34.707Z,101941.47
2022-10-17T17:20:36.362Z,101949.28
2022-10-17T17:22:38.051Z,101952.69
2022-10-17T17:24:39.780Z,101949.16
2022-10-17T17:26:41.700Z,101961.28
2022-10-17T17:28:44.274Z,101960.31
2022-10-17T17:30:45.936Z,101955.13
2022-10-17T17:32:47.680Z,101956.84
2022-10-17T17:34:49.309Z,101964.63
2022-10-17T17:36:51.006Z,101960.31
2022-10-17T17:38:56.214Z,101960.31
2022-10-17T17:40:58.184Z,101960.22
2022-10-17T17:45:03.384Z,101967.03
2022-10-17T17:47:05.242Z,101971.22
2022-10-17T17:49:06.964Z,101981.59
2022-10-17T17:51:10.789Z,101976.41
2022-10-17T17:53:15.158Z,101985.84
2022-10-17T17:55:16.930Z,101986.81
2022-10-17T17:57:18.725Z,101991.91
2022-10-17T17:59:20.445Z,101991.03
2022-10-17T18:01:24.115Z,101997.06
2022-10-17T18:03:31.968Z,102004.88
2022-10-17T18:05:33.710Z,102003.00
2022-10-17T18:07:38.218Z,102003.06
2022-10-17T18:09:39.942Z,102005.63
2022-10-17T18:11:42.056Z,102005.44
2022-10-17T18:13:43.841Z,102007.22
2022-10-17T18:15:46.512Z,102012.31
2022-10-17T18:17:48.244Z,102016.72
2022-10-17T18:19:49.922Z,102027.00
2022-10-17T18:21:51.564Z,102030.31
2022-10-17T18:23:53.550Z,102029.56
2022-10-17T18:26:02.937Z,102040.75
2022-10-17T18:28:04.819Z,102049.44
2022-10-17T18:30:08.618Z,102040.84
2022-10-17T18:32:10.499Z,102039.97
2022-10-17T18:34:12.157Z,102050.28
2022-10-17T18:36:15.345Z,102050.16
2022-10-17T18:38:17.042Z,102055.47
2022-10-17T18:40:18.717Z,102054.63
2022-10-17T18:42:20.603Z,102056.31
2022-10-17T18:44:22.282Z,102054.50
2022-10-17T18:46:41.062Z,102073.53
2022-10-17T18:48:44.813Z,102070.03
2022-10-17T18:50:47.112Z,102077.75
2022-10-17T18:52:49.700Z,102079.47
2022-10-17T18:54:52.614Z,102078.44
2022-10-17T18:56:55.384Z,102080.84
2022-10-17T18:58:57.735Z,102090.38
2022-10-17T19:01:16.818Z,102092.06
2022-10-17T19:03:19.148Z,102090.38
2022-10-17T19:05:20.882Z,102087.75
2022-10-17T19:07:22.520Z,102092.06
2022-10-17T19:09:24.330Z,102087.75
2022-10-17T19:11:28.035Z,102085.16
2022-10-17T19:13:33.820Z,102084.28
2022-10-17T19:15:36.003Z,102087.72
2022-10-17T19:17:37.698Z,102092.81
2022-10-17T19:19:39.434Z,102091.94
2022-10-17T19:21:41.587Z,102106.47
2022-10-17T19:23:43.435Z,102098.03
2022-10-17T19:25:45.238Z,102103.19
2022-10-17T19:27:46.948Z,102113.53
2022-10-17T19:29:48.592Z,102112.56
2022-10-17T19:31:50.449Z,102126.41
2022-10-17T19:33:52.958Z,102115.19
2022-10-17T19:36:16.740Z,102107.31
2022-10-17T19:38:18.493Z,102109.94
2022-10-17T19:40:20.391Z,102117.72
2022-10-17T19:42:22.134Z,102114.22
2022-10-17T19:44:23.964Z,102120.94
2022-10-17T19:46:27.095Z,102126.25
2022-10-17T19:48:32.074Z,102136.53
2022-10-17T19:50:35.703Z,102134.78
2022-10-17T19:52:39.598Z,102138.19
2022-10-17T19:54:41.304Z,102133.72
2022-10-17T19:56:43.549Z,102140.59
2022-10-17T19:58:47.059Z,102145.59
2022-10-17T20:00:55.001Z,102149.97
2022-10-17T20:02:56.647Z,102151.63
2022-10-17T20:05:13.826Z,102150.81
2022-10-17T20:07:19.921Z,102152.63
2022-10-17T20:09:22.069Z,102148.25
2022-10-17T20:11:29.074Z,102143.97
2022-10-17T20:13:33.127Z,102143.84
2022-10-17T20:15:35.076Z,102150.81
2022-10-17T20:17:36.716Z,102155.03
2022-10-17T20:19:38.600Z,102152.59
2022-10-17T20:21:40.547Z,102158.50
2022-10-17T20:23:43.359Z,102161.00
2022-10-17T20:25:45.313Z,102173.13
2022-10-17T20:27:47.176Z,102175.75
2022-10-17T20:29:48.919Z,102183.31
2022-10-17T20:31:50.648Z,102182.47
2022-10-17T20:33:59.302Z,102192.97
2022-10-17T20:36:06.060Z,102195.56
2022-10-17T20:38:07.725Z,102188.53
2022-10-17T20:40:33.739Z,102186.69
2022-10-17T20:42:31.672Z,102184.13
2022-10-17T20:44:47.092Z,102192.75
2022-10-17T20:47:01.205Z,102197.78
2022-10-17T20:49:07.939Z,102197.00
2022-10-17T20:51:11.003Z,102202.13
2022-10-17T20:53:42.645Z,102196.91
2022-10-17T20:55:34.447Z,102210.47
2022-10-17T20:57:36.079Z,102202.09
2022-10-17T20:59:38.172Z,102204.47
2022-10-17T21:01:40.104Z,102199.34
2022-10-17T21:03:45.450Z,102209.66
2022-10-17T21:05:48.181Z,102218.22
2022-10-17T21:07:49.989Z,102213.81
2022-10-17T21:09:51.661Z,102217.28
2022-10-17T21:11:55.753Z,102210.31
2022-10-17T21:14:01.417Z,102218.06
2022-10-17T21:16:13.361Z,102219.75
2022-10-17T21:18:15.003Z,102211.25
2022-10-17T21:20:16.898Z,102221.53
2022-10-17T21:22:19.874Z,102225.84
2022-10-17T21:24:21.658Z,102225.81
2022-10-17T21:26:23.940Z,102223.09
2022-10-17T21:28:25.636Z,102231.84
2022-10-17T21:30:27.356Z,102241.22
2022-10-17T21:32:40.222Z,102245.56
2022-10-17T21:34:49.103Z,102247.25
2022-10-17T21:36:51.428Z,102248.13
2022-10-17T21:38:54.762Z,102250.75
2022-10-17T21:40:56.812Z,102243.75
2022-10-17T21:42:58.441Z,102249.75
2022-10-17T21:45:00.264Z,102253.06
2022-10-17T21:47:02.597Z,102253.84
2022-10-17T21:49:04.424Z,102255.72
2022-10-17T21:51:08.575Z,102259.84
2022-10-17T21:53:10.219Z,102257.28
2022-10-17T21:55:11.861Z,102270.97
2022-10-17T21:57:13.552Z,102269.13
2022-10-17T21:59:15.551Z,102273.41
2022-10-17T22:01:20.628Z,102267.25
2022-10-17T22:03:33.015Z,102274.97
2022-10-17T22:05:34.660Z,102279.25
2022-10-17T22:07:36.358Z,102280.19
2022-10-17T22:09:38.032Z,102274.00
2022-10-17T22:11:40.368Z,102277.31
2022-10-17T22:13:42.273Z,102278.19
2022-10-17T22:15:43.954Z,102285.06
2022-10-17T22:17:45.678Z,102284.19
2022-10-17T22:19:47.593Z,102291.88
2022-10-17T22:21:49.789Z,102291.75
2022-10-17T22:23:57.294Z,102293.44
2022-10-17T22:25:59.732Z,102289.63
2022-10-17T22:28:01.992Z,102290.63
2022-10-17T22:30:04.636Z,102279.41
2022-10-17T22:32:06.346Z,102280.31
2022-10-17T22:34:08.449Z,102283.84
2022-10-17T22:36:10.829Z,102284.53
2022-10-17T22:38:12.814Z,102279.38
2022-10-17T22:40:14.685Z,102282.13
2022-10-17T22:42:16.376Z,102281.94
2022-10-17T22:44:18.063Z,102287.75
2022-10-17T22:46:19.767Z,102275.59
2022-10-17T22:48:22.082Z,102279.19
2022-10-17T22:50:24.160Z,102278.94
2022-10-17T22:52:25.792Z,102274.66
2022-10-17T22:54:27.531Z,102280.66
2022-10-17T22:56:29.210Z,102282.25
2022-10-17T22:58:32.178Z,102288.28
2022-10-17T23:00:33.840Z,102283.84
2022-10-17T23:02:35.834Z,102290.88
2022-10-17T23:04:37.496Z,102287.41
2022-10-17T23:06:39.231Z,102290.03
2022-10-17T23:08:41.259Z,102285.53
2022-10-17T23:10:43.349Z,102300.97
2022-10-17T23:12:45.038Z,102299.16
2022-10-17T23:14:46.755Z,102293.13
2022-10-17T23:16:48.370Z,102290.44
2022-10-17T23:18:50.001Z,102289.59
2022-10-17T23:20:52.339Z,102300.69
2022-10-17T23:22:53.979Z,102296.34
2022-10-17T23:24:55.674Z,102294.72
2022-10-17T23:26:57.480Z,102297.22
2022-10-17T23:28:59.480Z,102292.00
2022-10-17T23:31:20.164Z,102299.78
2022-10-17T23:33:31.839Z,102297.09
2022-10-17T23:35:34.444Z,102292.59
2022-10-17T23:37:37.004Z,102303.75
2022-10-17T23:39:38.704Z,102302.88
2022-10-17T23:41:40.551Z,102311.56
2022-10-17T23:43:43.331Z,102309.78
2022-10-17T23:45:45.007Z,102309.69
2022-10-17T23:47:46.814Z,102313.13
2022-10-17T23:49:48.458Z,102309.44
2022-10-17T23:51:50.151Z,102318.16
2022-10-17T23:53:51.770Z,102314.56
2022-10-17T23:55:53.714Z,102322.38
2022-10-17T23:57:55.403Z,102324.91
2022-10-17T23:59:57.121Z,102324.09
